Time;durP1;ratioP1;P1;durP2;ratioP2;P2;SDS_P1;SDS_P2;PMS_P1;PMS_P2;Temp;Humidity;BMP_temperature;BMP_pressure;BME280_temperature;BME280_humidity;BME280_pressure;Samples;Min_cycle;Max_cycle;Signal;HPM_P1;HPM_P2
2021/08/31 00:02:03;;;;;;;0.50;0.50;;;14.40;99.90;;;;;;6273683;28;20192;-78
2021/08/31 00:05:08;;;;;;;0.83;0.70;;;14.40;99.90;;;;;;6274165;28;20258;-78
2021/08/31 00:08:10;;;;;;;0.77;0.60;;;14.40;99.90;;;;;;6259091;28;20218;-78
2021/08/31 00:11:13;;;;;;;0.60;0.60;;;14.40;99.90;;;;;;6268135;28;20201;-79
2021/08/31 00:14:15;;;;;;;1.27;0.47;;;14.40;99.90;;;;;;6272135;28;20318;-78
2021/08/31 00:17:17;;;;;;;3.47;0.60;;;14.40;99.90;;;;;;6278034;28;20199;-78
2021/08/31 00:20:20;;;;;;;0.60;0.60;;;14.40;99.90;;;;;;6278125;28;20556;-79
2021/08/31 00:23:22;;;;;;;0.50;0.50;;;14.30;99.90;;;;;;6276421;28;20239;-78
2021/08/31 00:26:24;;;;;;;0.70;0.60;;;14.30;99.90;;;;;;6276632;28;20203;-78
2021/08/31 00:29:27;;;;;;;1.17;0.70;;;14.30;99.90;;;;;;6276278;28;20199;-78
2021/08/31 00:32:29;;;;;;;0.70;0.50;;;14.30;99.90;;;;;;6275445;28;20567;-78
2021/08/31 00:35:31;;;;;;;0.60;0.60;;;14.30;99.90;;;;;;6262930;28;20332;-78
2021/08/31 00:38:34;;;;;;;0.60;0.60;;;14.30;99.90;;;;;;6262578;28;20222;-78
2021/08/31 00:41:36;;;;;;;0.70;0.50;;;14.30;99.90;;;;;;6272662;28;20206;-78
2021/08/31 00:44:39;;;;;;;1.73;0.50;;;14.30;99.90;;;;;;6273150;28;20198;-79
2021/08/31 00:47:41;;;;;;;0.50;0.50;;;14.30;99.90;;;;;;6274709;28;20191;-78
2021/08/31 00:50:50;;;;;;;1.03;0.53;;;14.30;99.90;;;;;;6273019;28;20214;-78
2021/08/31 00:53:53;;;;;;;0.50;0.50;;;14.30;99.90;;;;;;6274928;28;20187;-78
2021/08/31 00:56:58;;;;;;;0.40;0.40;;;14.30;99.90;;;;;;6256581;28;20195;-78
2021/08/31 01:00:00;;;;;;;0.60;0.50;;;14.30;99.90;;;;;;6231046;28;20204;-78
2021/08/31 01:03:03;;;;;;;0.60;0.60;;;14.30;99.90;;;;;;6248381;28;20277;-78
2021/08/31 01:06:07;;;;;;;1.23;0.70;;;14.30;99.90;;;;;;6275861;28;20199;-78
2021/08/31 01:09:09;;;;;;;0.50;0.50;;;14.30;99.90;;;;;;6271905;28;20206;-79
2021/08/31 01:12:12;;;;;;;0.47;0.47;;;14.30;99.90;;;;;;6273519;28;20209;-79
2021/08/31 01:15:15;;;;;;;0.57;0.57;;;14.20;99.90;;;;;;6262729;28;20249;-79
2021/08/31 01:18:21;;;;;;;0.50;0.50;;;14.30;99.90;;;;;;6272519;28;20195;-78
2021/08/31 01:21:23;;;;;;;0.50;0.50;;;14.20;99.90;;;;;;6271876;28;20227;-79
2021/08/31 01:24:26;;;;;;;0.50;0.50;;;14.20;99.90;;;;;;6272242;28;20958;-78
2021/08/31 01:27:28;;;;;;;0.30;0.30;;;14.20;99.90;;;;;;6274772;28;20189;-78
2021/08/31 01:30:31;;;;;;;0.57;0.57;;;14.20;99.90;;;;;;6272060;28;20215;-79
2021/08/31 01:33:34;;;;;;;0.47;0.47;;;14.20;99.90;;;;;;6265368;28;20199;-78
2021/08/31 01:36:36;;;;;;;0.40;0.40;;;14.30;99.90;;;;;;6252810;28;20199;-78
2021/08/31 01:39:39;;;;;;;0.53;0.53;;;14.20;99.90;;;;;;6268792;28;20206;-78
2021/08/31 01:42:42;;;;;;;0.73;0.40;;;14.30;99.90;;;;;;6247954;28;20195;-78
2021/08/31 01:45:48;;;;;;;0.50;0.50;;;14.30;99.90;;;;;;6262611;28;20225;-79
2021/08/31 01:48:50;;;;;;;0.40;0.40;;;14.20;99.90;;;;;;6269463;28;20206;-78
2021/08/31 01:51:53;;;;;;;0.37;0.37;;;14.20;99.90;;;;;;6272058;28;20349;-79
2021/08/31 01:54:55;;;;;;;0.50;0.50;;;14.20;99.90;;;;;;6271406;28;20673;-78
2021/08/31 01:57:57;;;;;;;0.30;0.30;;;14.10;99.90;;;;;;6273954;28;20197;-77
2021/08/31 02:01:00;;;;;;;0.40;0.40;;;14.10;99.90;;;;;;6263516;28;20198;-78
2021/08/31 02:04:04;;;;;;;0.40;0.40;;;14.20;99.90;;;;;;6268162;28;20278;-78
2021/08/31 02:07:06;;;;;;;0.40;0.33;;;14.10;99.90;;;;;;6271464;28;20191;-78
2021/08/31 02:10:09;;;;;;;0.53;0.43;;;14.20;99.90;;;;;;6272110;28;20287;-78
2021/08/31 02:13:11;;;;;;;0.47;0.47;;;14.20;99.90;;;;;;6248261;28;20294;-78
2021/08/31 02:16:14;;;;;;;0.57;0.57;;;14.20;99.90;;;;;;6262062;28;20192;-78
2021/08/31 02:19:16;;;;;;;0.50;0.50;;;14.20;99.90;;;;;;6265079;28;20195;-78
2021/08/31 02:22:18;;;;;;;0.50;0.40;;;14.30;99.90;;;;;;6259627;28;20272;-78
2021/08/31 02:25:21;;;;;;;0.40;0.40;;;14.30;99.90;;;;;;6272780;28;20234;-78
2021/08/31 02:28:23;;;;;;;0.80;0.60;;;14.30;99.90;;;;;;6254905;28;20288;-78
2021/08/31 02:31:26;;;;;;;0.43;0.43;;;14.30;99.90;;;;;;6270098;28;20306;-78
2021/08/31 02:34:28;;;;;;;1.00;0.50;;;14.30;99.90;;;;;;6256762;28;20246;-78
2021/08/31 02:37:30;;;;;;;0.40;0.40;;;14.20;99.90;;;;;;6270572;28;20204;-78
2021/08/31 02:40:33;;;;;;;0.57;0.57;;;14.10;99.90;;;;;;6270391;28;20231;-78
2021/08/31 02:43:35;;;;;;;0.70;0.43;;;14.00;99.90;;;;;;6273146;28;20230;-79
2021/08/31 02:46:37;;;;;;;0.70;0.70;;;14.00;99.90;;;;;;6275030;28;20226;-78
2021/08/31 02:49:39;;;;;;;0.50;0.50;;;14.00;99.90;;;;;;6253434;28;20661;-78
2021/08/31 02:52:44;;;;;;;0.60;0.60;;;14.00;99.90;;;;;;6257674;28;20317;-78
2021/08/31 02:55:46;;;;;;;1.27;0.70;;;14.00;99.90;;;;;;6276983;28;20192;-78
2021/08/31 02:58:48;;;;;;;0.70;0.70;;;14.00;99.90;;;;;;6260363;28;20191;-78
2021/08/31 03:02:09;;;;;;;1.33;0.90;;;14.00;99.90;;;;;;6254979;28;20192;-78
2021/08/31 03:05:12;;;;;;;1.53;0.90;;;14.00;99.90;;;;;;6266137;28;20222;-78
2021/08/31 03:08:15;;;;;;;0.87;0.83;;;14.10;99.90;;;;;;6276436;28;20204;-78
2021/08/31 03:11:17;;;;;;;1.23;0.80;;;14.10;99.90;;;;;;6279921;28;20203;-78
2021/08/31 03:14:21;;;;;;;0.70;0.70;;;14.10;99.90;;;;;;6270669;28;20195;-78
2021/08/31 03:17:26;;;;;;;2.00;0.97;;;14.10;99.90;;;;;;6282383;28;20527;-78
2021/08/31 03:20:28;;;;;;;0.83;0.83;;;14.10;99.90;;;;;;6277732;28;20196;-78
2021/08/31 03:23:31;;;;;;;0.93;0.90;;;14.10;99.90;;;;;;6260311;28;20499;-78
2021/08/31 03:26:33;;;;;;;0.80;0.80;;;14.10;99.90;;;;;;6275659;28;20206;-78
2021/08/31 03:29:35;;;;;;;0.80;0.80;;;14.10;99.90;;;;;;6274596;28;20741;-79
2021/08/31 03:32:39;;;;;;;1.00;0.97;;;14.10;99.90;;;;;;6258233;28;20233;-78
2021/08/31 03:35:41;;;;;;;0.83;0.83;;;14.00;99.90;;;;;;6271575;28;20544;-78
2021/08/31 03:38:43;;;;;;;2.40;1.00;;;14.00;99.90;;;;;;6277487;28;20198;-78
2021/08/31 03:41:45;;;;;;;1.30;1.20;;;14.00;99.90;;;;;;6275600;28;20196;-78
2021/08/31 03:44:48;;;;;;;1.53;1.20;;;14.00;99.90;;;;;;6265273;28;20188;-78
2021/08/31 03:47:50;;;;;;;1.10;1.00;;;14.00;99.90;;;;;;6266716;28;20196;-79
2021/08/31 03:50:53;;;;;;;1.13;1.10;;;13.90;99.90;;;;;;6272311;28;20214;-78
2021/08/31 03:53:56;;;;;;;0.97;0.97;;;13.90;99.90;;;;;;6274420;28;20695;-78
2021/08/31 03:56:58;;;;;;;1.73;1.30;;;13.90;99.90;;;;;;6277056;28;20191;-78
2021/08/31 04:00:00;;;;;;;1.43;1.33;;;13.90;99.90;;;;;;6241783;28;20679;-78
2021/08/31 04:03:07;;;;;;;1.00;1.00;;;13.90;99.90;;;;;;6282406;28;20293;-79
2021/08/31 04:06:09;;;;;;;1.67;1.57;;;13.90;99.90;;;;;;6267784;28;20195;-79
2021/08/31 04:09:11;;;;;;;3.80;2.00;;;13.90;99.90;;;;;;6275761;28;20183;-78
2021/08/31 04:12:14;;;;;;;2.17;2.07;;;13.90;99.90;;;;;;6273763;28;20206;-78
2021/08/31 04:15:16;;;;;;;2.20;1.80;;;14.00;99.90;;;;;;6267059;28;20195;-78
2021/08/31 04:18:18;;;;;;;2.03;1.93;;;14.10;99.90;;;;;;6256983;28;20716;-78
2021/08/31 04:21:20;;;;;;;2.47;2.27;;;14.10;99.90;;;;;;6276161;28;20235;-78
2021/08/31 04:24:23;;;;;;;2.50;1.80;;;14.10;99.90;;;;;;6273667;28;20283;-79
2021/08/31 04:27:25;;;;;;;1.90;1.80;;;14.10;99.90;;;;;;6251102;28;20204;-79
2021/08/31 04:30:28;;;;;;;1.90;1.80;;;14.20;99.90;;;;;;6284888;28;20226;-79
2021/08/31 04:33:30;;;;;;;2.73;2.53;;;14.20;99.90;;;;;;6266349;28;20210;-78
2021/08/31 04:36:32;;;;;;;2.07;1.97;;;14.20;99.90;;;;;;6277370;28;20571;-78
2021/08/31 04:39:35;;;;;;;2.30;2.17;;;14.20;99.90;;;;;;6273352;28;20183;-78
2021/08/31 04:42:37;;;;;;;2.73;2.53;;;14.30;99.90;;;;;;6252153;28;20287;-78
2021/08/31 04:45:39;;;;;;;3.27;3.00;;;14.30;99.90;;;;;;6249037;28;20223;-79
2021/08/31 04:48:42;;;;;;;2.67;2.47;;;14.40;99.90;;;;;;6264759;28;20230;-78
2021/08/31 04:51:44;;;;;;;2.60;2.40;;;14.40;99.90;;;;;;6290092;28;20215;-78
2021/08/31 04:54:46;;;;;;;2.57;2.30;;;14.50;99.90;;;;;;6271199;28;20204;-78
2021/08/31 04:57:48;;;;;;;2.23;2.10;;;14.50;99.90;;;;;;6272141;28;20195;-79
2021/08/31 05:00:51;;;;;;;2.60;2.40;;;14.50;99.90;;;;;;6251121;28;20648;-79
2021/08/31 05:03:54;;;;;;;2.00;1.90;;;14.60;99.90;;;;;;6259922;28;20666;-78
2021/08/31 05:06:56;;;;;;;1.83;1.70;;;14.60;99.90;;;;;;6272474;28;20233;-78
2021/08/31 05:09:58;;;;;;;2.53;1.87;;;14.60;99.90;;;;;;6254502;28;20202;-78
2021/08/31 05:13:01;;;;;;;3.77;2.07;;;14.60;99.90;;;;;;6271424;28;20219;-78
2021/08/31 05:16:03;;;;;;;1.90;1.57;;;14.70;99.90;;;;;;6245758;28;20199;-78
2021/08/31 05:19:06;;;;;;;1.43;1.33;;;14.70;99.90;;;;;;6284350;28;20195;-78
2021/08/31 05:22:11;;;;;;;1.23;1.13;;;14.70;99.90;;;;;;6240004;28;20592;-78
2021/08/31 05:25:13;;;;;;;2.27;1.30;;;14.70;99.90;;;;;;6271691;28;20207;-79
2021/08/31 05:28:15;;;;;;;1.47;1.37;;;14.70;99.90;;;;;;6254425;28;20224;-79
2021/08/31 05:31:18;;;;;;;3.27;1.20;;;14.70;99.90;;;;;;6271072;28;20226;-79
2021/08/31 05:34:20;;;;;;;1.43;1.33;;;14.70;99.90;;;;;;6242532;28;20214;-79
2021/08/31 05:37:23;;;;;;;1.57;1.47;;;14.70;99.90;;;;;;6271290;28;20315;-79
2021/08/31 05:40:25;;;;;;;2.97;1.00;;;14.70;99.90;;;;;;6270607;28;20255;-79
2021/08/31 05:43:28;;;;;;;1.23;1.13;;;14.70;99.90;;;;;;6240187;28;20201;-78
2021/08/31 05:46:31;;;;;;;1.60;1.33;;;14.80;99.90;;;;;;6264312;28;20507;-78
2021/08/31 05:49:34;;;;;;;1.53;1.30;;;14.90;99.90;;;;;;6271865;28;20345;-79
2021/08/31 05:52:37;;;;;;;1.40;1.30;;;15.00;99.90;;;;;;6273286;28;20203;-79
2021/08/31 05:55:39;;;;;;;1.47;1.37;;;15.10;99.90;;;;;;6256337;28;20194;-78
2021/08/31 05:58:41;;;;;;;1.50;1.40;;;15.10;99.90;;;;;;6270847;28;20689;-79
2021/08/31 06:01:44;;;;;;;2.83;1.17;;;15.20;99.90;;;;;;6271892;28;20226;-79
2021/08/31 06:05:07;;;;;;;1.50;1.40;;;15.20;99.90;;;;;;6255831;28;20640;-78
2021/08/31 06:08:09;;;;;;;1.60;1.50;;;15.20;99.90;;;;;;6271758;28;20646;-78
2021/08/31 06:11:12;;;;;;;1.30;1.20;;;15.20;99.90;;;;;;6270546;28;20316;-79
2021/08/31 06:14:14;;;;;;;4.20;1.20;;;15.10;99.90;;;;;;6248133;28;20263;-78
2021/08/31 06:17:19;;;;;;;1.23;1.10;;;15.10;99.90;;;;;;6280713;28;20191;-79
2021/08/31 06:20:21;;;;;;;1.63;1.20;;;15.10;99.90;;;;;;6272094;28;20192;-79
2021/08/31 06:23:24;;;;;;;2.07;1.70;;;15.10;99.90;;;;;;6234224;28;20597;-78
2021/08/31 06:26:26;;;;;;;1.50;1.40;;;15.10;99.90;;;;;;6257220;28;20192;-78
2021/08/31 06:29:28;;;;;;;1.67;1.47;;;15.10;99.90;;;;;;6278665;28;20297;-78
2021/08/31 06:32:31;;;;;;;2.43;2.13;;;15.10;99.90;;;;;;6260017;28;20745;-78
2021/08/31 06:35:33;;;;;;;1.60;1.47;;;15.20;99.90;;;;;;6250917;28;20200;-78
2021/08/31 06:38:35;;;;;;;1.80;1.70;;;15.20;99.90;;;;;;6275544;28;20194;-79
2021/08/31 06:41:38;;;;;;;2.30;2.10;;;15.30;99.90;;;;;;6275158;28;20243;-79
2021/08/31 06:44:40;;;;;;;2.40;2.20;;;15.40;99.90;;;;;;6275943;28;20270;-78
2021/08/31 06:47:42;;;;;;;1.97;1.87;;;15.50;99.90;;;;;;6276197;28;20195;-79
2021/08/31 06:50:45;;;;;;;2.33;1.80;;;15.60;99.90;;;;;;6266327;28;20282;-78
2021/08/31 06:53:47;;;;;;;2.73;2.03;;;15.60;99.90;;;;;;6260069;28;20650;-79
2021/08/31 06:56:49;;;;;;;2.37;2.17;;;15.70;99.90;;;;;;6278475;28;20214;-78
2021/08/31 06:59:51;;;;;;;2.40;2.20;;;15.70;99.90;;;;;;6277986;28;20639;-78
2021/08/31 07:02:54;;;;;;;3.87;2.53;;;15.80;99.90;;;;;;6275062;28;20191;-78
2021/08/31 07:05:56;;;;;;;2.67;2.47;;;15.80;99.90;;;;;;6271251;28;20211;-78
2021/08/31 07:08:59;;;;;;;2.60;2.40;;;16.00;99.90;;;;;;6276253;28;20569;-78
2021/08/31 07:12:01;;;;;;;3.70;2.77;;;16.10;99.90;;;;;;6261506;28;20219;-79
2021/08/31 07:15:04;;;;;;;2.53;2.23;;;16.30;99.90;;;;;;6254575;28;20188;-79
2021/08/31 07:18:07;;;;;;;2.17;2.07;;;16.50;99.90;;;;;;6260924;28;20207;-78
2021/08/31 07:21:09;;;;;;;2.30;2.10;;;16.80;99.90;;;;;;6254239;28;20235;-79
2021/08/31 07:24:11;;;;;;;2.10;1.93;;;17.00;99.90;;;;;;6276728;28;20183;-78
2021/08/31 07:27:14;;;;;;;1.60;1.50;;;17.20;99.90;;;;;;6251804;28;20275;-79
2021/08/31 07:30:17;;;;;;;2.00;1.90;;;17.40;99.90;;;;;;6274752;28;20218;-78
2021/08/31 07:33:19;;;;;;;1.80;1.70;;;17.70;99.90;;;;;;6251390;28;20208;-79
2021/08/31 07:36:21;;;;;;;2.17;1.93;;;18.00;99.90;;;;;;6285571;28;20191;-79
2021/08/31 07:39:24;;;;;;;1.97;1.87;;;18.30;99.90;;;;;;6267793;28;20196;-80
2021/08/31 07:42:27;;;;;;;3.07;1.87;;;18.50;99.90;;;;;;6267133;28;20249;-79
2021/08/31 07:45:29;;;;;;;1.53;1.43;;;18.40;99.90;;;;;;6275785;28;20222;-79
2021/08/31 07:48:32;;;;;;;1.57;1.43;;;18.20;99.90;;;;;;6282358;28;20191;-80
2021/08/31 07:51:34;;;;;;;1.70;1.60;;;18.30;99.90;;;;;;6270796;28;20693;-79
2021/08/31 07:54:37;;;;;;;1.93;1.40;;;18.40;99.90;;;;;;6274514;28;20200;-80
2021/08/31 07:57:40;;;;;;;1.70;1.60;;;18.50;99.90;;;;;;6251308;28;20215;-80
2021/08/31 08:00:42;;;;;;;1.67;1.57;;;18.50;99.90;;;;;;6253837;28;20684;-79
2021/08/31 08:03:45;;;;;;;1.60;1.50;;;18.40;99.90;;;;;;6279165;28;20208;-79
2021/08/31 08:06:47;;;;;;;1.73;1.57;;;18.40;99.90;;;;;;6270834;28;20353;-79
2021/08/31 08:09:49;;;;;;;1.90;1.70;;;18.30;99.90;;;;;;6279262;28;20562;-79
2021/08/31 08:12:52;;;;;;;1.70;1.60;;;18.60;99.90;;;;;;6258726;28;20227;-79
2021/08/31 08:15:54;;;;;;;1.60;1.50;;;18.90;99.90;;;;;;6266026;28;20195;-79
2021/08/31 08:18:56;;;;;;;4.03;1.90;;;19.20;99.90;;;;;;6283585;28;20691;-80
2021/08/31 08:21:59;;;;;;;2.27;1.50;;;19.40;99.90;;;;;;6248020;28;20565;-79
2021/08/31 08:25:01;;;;;;;2.00;1.90;;;19.10;99.90;;;;;;6278821;28;20251;-78
2021/08/31 08:28:04;;;;;;;2.30;2.07;;;19.00;99.90;;;;;;6292000;28;20270;-78
2021/08/31 08:31:06;;;;;;;2.13;1.97;;;18.70;99.90;;;;;;6290507;28;20249;-78
2021/08/31 08:34:09;;;;;;;2.27;2.07;;;18.40;99.90;;;;;;6266076;28;20206;-79
2021/08/31 08:37:11;;;;;;;2.70;2.17;;;18.30;99.90;;;;;;6277257;28;20191;-79
2021/08/31 08:40:14;;;;;;;3.00;2.10;;;18.20;99.90;;;;;;6259639;28;20229;-78
2021/08/31 08:43:17;;;;;;;2.13;2.00;;;18.10;99.90;;;;;;6269562;28;20675;-79
2021/08/31 08:46:21;;;;;;;3.23;2.00;;;17.90;99.90;;;;;;6258593;28;20192;-79
2021/08/31 08:49:24;;;;;;;2.07;1.97;;;17.90;99.90;;;;;;6288645;28;20210;-79
2021/08/31 08:52:27;;;;;;;2.40;2.20;;;18.10;99.90;;;;;;6273524;28;20237;-79
2021/08/31 08:55:29;;;;;;;2.07;1.97;;;18.20;99.90;;;;;;6254735;28;20225;-78
2021/08/31 08:58:32;;;;;;;1.90;1.80;;;18.20;99.90;;;;;;6271029;28;20190;-79
2021/08/31 09:01:43;;;;;;;2.10;2.00;;;18.20;99.90;;;;;;6254564;28;20211;-79
2021/08/31 09:04:48;;;;;;;3.27;2.13;;;18.20;99.90;;;;;;6260352;28;20191;-79
2021/08/31 09:07:51;;;;;;;2.03;1.87;;;18.20;99.90;;;;;;6271979;28;20261;-79
2021/08/31 09:10:54;;;;;;;1.90;1.80;;;18.50;99.90;;;;;;6261913;28;20196;-78
2021/08/31 09:14:17;;;;;;;2.13;1.97;;;18.70;99.90;;;;;;6248308;28;20204;-78
2021/08/31 09:17:20;;;;;;;2.50;2.30;;;18.80;99.90;;;;;;6247346;28;20193;-78
2021/08/31 09:20:22;;;;;;;3.03;2.40;;;18.40;99.90;;;;;;6230061;28;20253;-79
2021/08/31 09:23:32;;;;;;;3.43;2.23;;;18.10;99.90;;;;;;6270425;28;20322;-77
2021/08/31 09:26:45;;;;;;;3.13;2.70;;;18.00;99.90;;;;;;6270364;28;20195;-78
2021/08/31 09:29:47;;;;;;;3.07;2.50;;;18.00;99.90;;;;;;6271663;28;20207;-77
2021/08/31 09:33:03;;;;;;;2.57;2.37;;;18.00;99.90;;;;;;6265357;28;20218;-77
2021/08/31 09:36:18;;;;;;;2.60;2.40;;;18.00;99.90;;;;;;6255054;28;20199;-78
2021/08/31 09:39:29;;;;;;;2.70;2.47;;;18.00;99.90;;;;;;6271478;28;20191;-77
2021/08/31 09:42:32;;;;;;;2.30;2.10;;;18.00;99.90;;;;;;6267374;28;20598;-79
2021/08/31 09:45:37;;;;;;;2.80;2.60;;;18.00;99.90;;;;;;6255064;28;20200;-78
2021/08/31 09:48:40;;;;;;;3.50;2.90;;;17.80;99.90;;;;;;6247611;28;20204;-77
2021/08/31 09:52:11;;;;;;;2.93;2.40;;;17.60;99.90;;;;;;6268639;28;20306;-78
2021/08/31 09:55:21;;;;;;;2.57;2.37;;;17.60;99.90;;;;;;6221079;28;20567;-77
2021/08/31 09:58:25;;;;;;;3.00;2.70;;;17.40;99.90;;;;;;6266104;28;20192;-78
2021/08/31 10:01:27;;;;;;;2.77;2.57;;;17.40;99.90;;;;;;6253376;28;20199;-78
2021/08/31 10:04:29;;;;;;;2.70;2.50;;;17.30;99.90;;;;;;6259149;28;20196;-78
2021/08/31 10:07:32;;;;;;;3.03;2.83;;;17.40;99.90;;;;;;6263747;28;20217;-78
2021/08/31 10:10:37;;;;;;;2.87;2.50;;;17.30;99.90;;;;;;6275171;28;20325;-78
2021/08/31 10:13:42;;;;;;;2.67;2.47;;;17.20;99.90;;;;;;6274927;28;20211;-78
2021/08/31 10:16:45;;;;;;;2.87;2.67;;;17.10;99.90;;;;;;6274611;28;20211;-77
2021/08/31 10:19:48;;;;;;;3.03;2.30;;;17.00;99.90;;;;;;6274846;28;20195;-78
2021/08/31 10:22:51;;;;;;;2.17;1.97;;;16.90;99.90;;;;;;6251242;28;20978;-79
2021/08/31 10:26:13;;;;;;;2.07;1.97;;;16.80;99.90;;;;;;6287505;28;20679;-79
2021/08/31 10:29:18;;;;;;;2.10;1.80;;;16.70;99.90;;;;;;6274555;28;20207;-78
2021/08/31 10:32:33;;;;;;;1.93;1.60;;;16.60;99.90;;;;;;6275063;28;20298;-77
2021/08/31 10:35:51;;;;;;;3.60;1.97;;;16.50;99.90;;;;;;6265841;28;20380;-77
2021/08/31 10:38:55;;;;;;;2.17;1.87;;;16.50;99.90;;;;;;6235762;28;20653;-77
2021/08/31 10:41:57;;;;;;;1.73;1.60;;;16.50;99.90;;;;;;6241694;28;20287;-77
2021/08/31 10:45:02;;;;;;;3.33;1.80;;;16.60;99.90;;;;;;6242140;28;20282;-78
2021/08/31 10:48:25;;;;;;;1.83;1.40;;;16.60;99.90;;;;;;6270082;28;20196;-78
2021/08/31 10:51:28;;;;;;;1.47;1.37;;;16.60;99.90;;;;;;6261427;28;20657;-77
2021/08/31 10:54:44;;;;;;;1.60;1.50;;;16.60;99.90;;;;;;6227135;28;20247;-79
2021/08/31 10:57:47;;;;;;;1.37;1.27;;;16.60;99.90;;;;;;6265910;28;20230;-78
2021/08/31 11:00:50;;;;;;;1.50;1.40;;;16.50;99.90;;;;;;6241246;28;20652;-78
2021/08/31 11:03:55;;;;;;;1.97;1.87;;;16.50;99.90;;;;;;6258163;28;20656;-79
2021/08/31 11:06:59;;;;;;;2.20;2.00;;;16.40;99.90;;;;;;6267190;28;20203;-78
2021/08/31 11:10:01;;;;;;;2.90;1.80;;;16.30;99.90;;;;;;6273611;28;20285;-77
2021/08/31 11:13:17;;;;;;;2.37;2.17;;;16.20;99.90;;;;;;6273331;28;20310;-78
2021/08/31 11:16:24;;;;;;;2.73;2.13;;;16.10;99.90;;;;;;6262380;28;20192;-79
2021/08/31 11:19:28;;;;;;;3.33;2.93;;;16.20;99.90;;;;;;6265951;28;20254;-78
2021/08/31 11:22:31;;;;;;;3.27;2.97;;;16.30;99.90;;;;;;6250501;28;20239;-78
2021/08/31 11:29:57;;;;;;;2.53;2.33;;;16.60;99.90;;;;;;6257840;28;20191;-79
2021/08/31 11:33:13;;;;;;;3.63;3.33;;;16.90;99.90;;;;;;6270978;28;20733;-78
2021/08/31 11:36:30;;;;;;;3.33;3.03;;;17.10;99.90;;;;;;6252688;28;20245;-77
2021/08/31 11:39:33;;;;;;;3.60;3.00;;;17.40;99.90;;;;;;6273246;28;20197;-77
2021/08/31 11:42:55;;;;;;;3.83;3.47;;;17.60;99.90;;;;;;6272646;28;20682;-77
2021/08/31 11:45:57;;;;;;;3.70;3.40;;;17.70;99.90;;;;;;6273206;28;20195;-77
2021/08/31 11:49:14;;;;;;;3.73;3.20;;;17.80;99.90;;;;;;6256323;28;20206;-77
2021/08/31 11:52:19;;;;;;;5.10;4.30;;;17.80;99.90;;;;;;6256087;28;20256;-77
2021/08/31 11:55:26;;;;;;;3.43;3.13;;;17.90;99.90;;;;;;6274561;28;20194;-78
2021/08/31 11:58:30;;;;;;;3.43;3.13;;;17.90;99.90;;;;;;6256767;28;20559;-77
2021/08/31 12:01:36;;;;;;;4.07;3.57;;;17.90;99.90;;;;;;6276852;28;20575;-77
2021/08/31 12:04:40;;;;;;;3.93;3.63;;;18.00;99.90;;;;;;6266589;28;20188;-78
2021/08/31 12:07:46;;;;;;;3.60;3.30;;;18.00;99.90;;;;;;6272451;28;20607;-77
2021/08/31 12:10:52;;;;;;;4.10;3.70;;;18.10;99.90;;;;;;6272335;28;20340;-77
2021/08/31 12:13:55;;;;;;;4.90;3.93;;;18.10;99.90;;;;;;6272257;28;20199;-78
2021/08/31 12:16:57;;;;;;;4.93;3.90;;;18.30;99.90;;;;;;6273275;28;20310;-78
2021/08/31 12:20:10;;;;;;;4.07;3.67;;;18.70;99.90;;;;;;6271819;28;20628;-78
2021/08/31 12:23:14;;;;;;;3.83;3.13;;;19.20;99.90;;;;;;6250043;28;20280;-77
2021/08/31 12:26:42;;;;;;;3.67;3.37;;;19.80;99.90;;;;;;6282502;28;20196;-78
2021/08/31 12:29:50;;;;;;;3.60;3.30;;;19.90;99.90;;;;;;6268089;28;20207;-78
2021/08/31 12:32:56;;;;;;;3.63;3.17;;;19.90;99.90;;;;;;6271146;28;20218;-78
2021/08/31 12:36:01;;;;;;;3.47;3.00;;;19.90;99.90;;;;;;6263100;28;20210;-77
2021/08/31 12:39:08;;;;;;;3.80;2.77;;;20.20;99.90;;;;;;6271589;28;20196;-78
2021/08/31 12:42:16;;;;;;;3.67;3.27;;;20.30;99.90;;;;;;6255023;28;20258;-77
2021/08/31 12:45:28;;;;;;;5.23;3.00;;;20.20;99.90;;;;;;6272671;28;20194;-77
2021/08/31 12:48:43;;;;;;;3.60;3.30;;;20.10;99.90;;;;;;6254824;28;20286;-77
2021/08/31 12:51:46;;;;;;;3.00;2.80;;;20.10;99.90;;;;;;6271073;28;20202;-77
2021/08/31 12:54:49;;;;;;;3.10;2.80;;;19.90;99.90;;;;;;6271188;28;20691;-78
2021/08/31 12:57:51;;;;;;;2.90;2.67;;;19.80;99.90;;;;;;6254445;28;20245;-78
2021/08/31 13:01:04;;;;;;;3.30;2.53;;;19.70;99.90;;;;;;6250391;28;20643;-77
2021/08/31 13:04:12;;;;;;;2.80;2.53;;;19.60;99.90;;;;;;6268608;28;20204;-78
2021/08/31 13:07:16;;;;;;;3.37;2.87;;;19.60;99.90;;;;;;6262790;28;20203;-78
2021/08/31 13:10:20;;;;;;;5.27;3.10;;;19.30;99.90;;;;;;6272104;28;20195;-78
2021/08/31 13:13:33;;;;;;;3.47;3.10;;;19.30;99.90;;;;;;6270729;28;20207;-79
2021/08/31 13:16:36;;;;;;;3.50;3.00;;;19.20;99.90;;;;;;6255211;28;20192;-78
2021/08/31 13:19:38;;;;;;;3.73;3.00;;;19.30;99.90;;;;;;6271839;28;20190;-78
2021/08/31 13:22:41;;;;;;;3.40;3.10;;;19.90;99.90;;;;;;6250185;28;20781;-78
2021/08/31 13:25:43;;;;;;;2.23;2.03;;;20.30;99.90;;;;;;6272146;28;20565;-79
2021/08/31 13:28:47;;;;;;;2.83;2.63;;;20.50;99.90;;;;;;6254658;28;20625;-78
2021/08/31 13:31:49;;;;;;;2.73;2.53;;;20.10;99.90;;;;;;6270672;28;20227;-78
2021/08/31 13:34:51;;;;;;;2.70;2.50;;;19.80;99.90;;;;;;6235829;28;20216;-78
2021/08/31 13:37:54;;;;;;;2.90;2.70;;;19.60;99.90;;;;;;6247306;28;20192;-79
2021/08/31 13:40:56;;;;;;;3.40;3.10;;;19.40;99.90;;;;;;6262011;28;20273;-79
2021/08/31 13:43:59;;;;;;;3.73;2.60;;;19.10;99.90;;;;;;6268100;28;20562;-79
2021/08/31 13:47:02;;;;;;;2.77;2.53;;;18.80;99.90;;;;;;6270585;28;20203;-78
2021/08/31 13:50:04;;;;;;;3.10;2.80;;;18.70;99.90;;;;;;6271693;28;20651;-78
2021/08/31 13:53:07;;;;;;;2.63;2.40;;;18.60;99.90;;;;;;6255034;28;20264;-79
2021/08/31 13:56:09;;;;;;;2.77;2.57;;;19.10;99.90;;;;;;6272880;28;20191;-79
2021/08/31 13:59:11;;;;;;;2.90;2.60;;;19.90;99.90;;;;;;6255758;28;20192;-79
2021/08/31 14:02:13;;;;;;;2.50;2.30;;;21.30;99.90;;;;;;6276493;28;20199;-79
2021/08/31 14:05:16;;;;;;;2.43;2.23;;;22.10;99.60;;;;;;6260585;28;20202;-80
2021/08/31 14:08:18;;;;;;;3.70;2.03;;;22.70;97.90;;;;;;6273398;28;20184;-80
2021/08/31 14:11:21;;;;;;;2.77;2.27;;;23.40;97.30;;;;;;6269251;28;20602;-80
2021/08/31 14:14:23;;;;;;;2.63;2.00;;;23.90;94.20;;;;;;6261112;28;20207;-80
2021/08/31 14:17:26;;;;;;;2.17;1.97;;;24.20;94.00;;;;;;6289278;28;20195;-79
2021/08/31 14:20:28;;;;;;;2.60;2.40;;;24.00;93.70;;;;;;6257400;28;20223;-80
2021/08/31 14:23:31;;;;;;;2.30;2.10;;;24.20;92.50;;;;;;6255762;28;20768;-79
2021/08/31 14:26:33;;;;;;;2.50;2.10;;;24.40;91.70;;;;;;6278526;28;20199;-80
2021/08/31 14:29:35;;;;;;;2.60;2.20;;;24.30;92.30;;;;;;6238287;28;20204;-81
2021/08/31 14:32:38;;;;;;;2.10;2.00;;;24.70;91.30;;;;;;6254248;28;20211;-80
2021/08/31 14:35:40;;;;;;;2.20;2.00;;;25.00;91.30;;;;;;6231598;28;20290;-80
2021/08/31 14:38:43;;;;;;;2.40;1.90;;;25.40;89.20;;;;;;6271457;28;20196;-80
2021/08/31 14:41:46;;;;;;;2.40;2.10;;;25.70;84.50;;;;;;6271199;28;20192;-79
2021/08/31 14:44:48;;;;;;;2.33;2.13;;;26.00;82.00;;;;;;6273075;28;20286;-79
2021/08/31 14:47:50;;;;;;;2.00;1.80;;;26.10;80.40;;;;;;6274840;28;20278;-79
2021/08/31 14:50:53;;;;;;;2.10;1.80;;;26.10;79.20;;;;;;6260153;28;20204;-79
2021/08/31 14:53:55;;;;;;;1.90;1.80;;;26.60;76.50;;;;;;6255941;28;20217;-79
2021/08/31 14:56:58;;;;;;;2.50;1.80;;;27.00;75.10;;;;;;6259943;28;20232;-80
2021/08/31 15:00:00;;;;;;;2.63;1.87;;;26.90;72.60;;;;;;6276498;28;20235;-79
2021/08/31 15:03:03;;;;;;;1.63;1.33;;;26.20;73.30;;;;;;6279073;28;20200;-80
2021/08/31 15:06:05;;;;;;;2.10;1.70;;;25.80;73.60;;;;;;6277256;28;20218;-79
2021/08/31 15:09:08;;;;;;;1.73;1.63;;;26.00;74.50;;;;;;6253837;28;20211;-79
2021/08/31 15:12:11;;;;;;;3.07;1.63;;;25.60;71.90;;;;;;6288141;28;20210;-79
2021/08/31 15:15:13;;;;;;;1.83;1.67;;;25.10;73.70;;;;;;6263348;28;20659;-79
2021/08/31 15:18:16;;;;;;;2.57;1.60;;;24.00;77.40;;;;;;6284393;28;20240;-79
2021/08/31 15:21:21;;;;;;;2.67;1.87;;;22.40;82.30;;;;;;6269126;28;20226;-79
2021/08/31 15:24:25;;;;;;;1.67;1.57;;;21.60;87.40;;;;;;6277435;28;20606;-79
2021/08/31 15:27:27;;;;;;;2.70;1.60;;;20.80;89.40;;;;;;6277458;28;20199;-78
2021/08/31 15:30:31;;;;;;;3.07;1.80;;;20.20;91.20;;;;;;6261674;28;20246;-79
2021/08/31 15:33:33;;;;;;;1.70;1.60;;;19.70;92.70;;;;;;6269489;28;20239;-79
2021/08/31 15:36:39;;;;;;;1.77;1.67;;;19.50;93.40;;;;;;6251186;28;20192;-79
2021/08/31 15:39:42;;;;;;;1.87;1.60;;;19.20;94.20;;;;;;6278912;28;20199;-78
2021/08/31 15:42:46;;;;;;;2.10;1.90;;;18.90;95.60;;;;;;6277127;28;20187;-79
2021/08/31 15:45:48;;;;;;;2.37;2.03;;;18.60;96.80;;;;;;6282248;28;20192;-79
2021/08/31 15:48:51;;;;;;;2.10;1.70;;;18.40;98.20;;;;;;6284521;28;20214;-79
2021/08/31 15:51:54;;;;;;;1.97;1.73;;;18.30;99.10;;;;;;6279590;28;20191;-79
2021/08/31 15:54:56;;;;;;;2.43;2.10;;;18.20;99.90;;;;;;6273189;28;20208;-79
2021/08/31 15:57:59;;;;;;;3.57;2.10;;;18.20;99.90;;;;;;6270590;28;20744;-78
2021/08/31 16:01:01;;;;;;;3.00;1.90;;;18.10;99.90;;;;;;6280214;28;20277;-78
2021/08/31 16:04:04;;;;;;;2.27;1.90;;;18.10;99.90;;;;;;6264566;28;20286;-78